Flight Track Log - Related Links

Times and Time Zones

All times are in EST time to prevent confusion due to time zone crossing. See the JA-822J flight status page for this flight to view local times or setup timezone preferences in your user account.

Time Position Orientation Groundspeed Altitude Reporting Facility
EST Latitude Longitude Course Direction KTS MPH feet Rate Location/Type
Sun 04:39:00 AM 35.8601 140.0641 290° West  Level Estimated
Sun 04:40:00 AM 35.8917 139.9564 290° West  Level Estimated
Sun 04:41:00 AM 35.9232 139.8487 290° West  Level Estimated
Sun 04:42:00 AM 35.9547 139.7410 290° West  Level Estimated
Sun 04:43:00 AM 35.9860 139.6331 290° West  Level Estimated
Sun 04:43:20 AM 35.6620 140.2050 290° West 341 392 18,100  Level FlightAware ADS-B
Sun 04:43:55 AM 35.6830 140.1420 292° West 354 407 19,800 2,818 Climbing FlightAware ADS-B
Sun 04:44:26 AM 35.7030 140.0830 293° West 362 417 21,200 2,754 Climbing FlightAware ADS-B
Sun 04:44:56 AM 35.7210 140.0260 291° West 370 426 22,600 2,776 Climbing FlightAware ADS-B
Sun 04:45:33 AM 35.7450 139.9540 292° West 373 429 24,300 2,687 Climbing FlightAware ADS-B
Sun 04:46:03 AM 35.7630 139.8980 292° West 377 434 25,600 2,778 Climbing FlightAware ADS-B
Sun 04:46:27 AM 35.7780 139.8470 290° West 375 432 26,800 2,556 Climbing FlightAware ADS-B
Sun 04:46:57 AM 35.7870 139.7840 280° West 376 433 27,900 2,237 Climbing FlightAware ADS-B
Sun 04:47:26 AM 35.7920 139.7210 276° West 381 438 29,000 2,441 Climbing FlightAware ADS-B
Sun 04:47:56 AM 35.7970 139.6560 275° West 380 437 30,300 2,182 Climbing FlightAware ADS-B
Sun 04:48:32 AM 35.8040 139.5780 276° West 386 444 31,400 1,727 Climbing FlightAware ADS-B
Sun 04:49:02 AM 35.8090 139.5120 275° West 391 450 32,200 1,672 Climbing FlightAware ADS-B
Sun 04:49:33 AM 35.8150 139.4450 276° West 393 452 33,100 1,800 Climbing FlightAware ADS-B
Sun 04:50:02 AM 35.8200 139.3790 275° West 393 452 34,000 2,195 Climbing FlightAware ADS-B
Sun 04:50:14 AM 35.8222 139.3559 277° West 394 453 34,600 1,548 Climbing FlightAware ADS-B (EGKK / LGW)
Sun 04:50:33 AM 35.8260 139.3120 276° West 397 457 34,800 1,250 Climbing FlightAware ADS-B
Sun 04:51:02 AM 35.8310 139.2450 275° West 398 458 35,600 1,920 Climbing FlightAware ADS-B
Sun 04:51:23 AM 35.8351 139.1995 276° West 393 452 36,400 2,167 Climbing FlightAware ADS-B (EGKK / LGW)
Sun 04:51:38 AM 35.8380 139.1650 276° West 384 442 36,900 2,438 Climbing FlightAware ADS-B
Sun 04:51:55 AM 35.8405 139.1316 275° West 377 434 37,700 2,200 Climbing FlightAware ADS-B (EGKK / LGW)
Sun 04:52:08 AM 35.8430 139.1030 276° West 373 429 38,000 720 Climbing FlightAware ADS-B
Sun 04:52:45 AM 35.8490 139.0250 275° West 382 440 38,300 698 Climbing FlightAware ADS-B
Sun 04:53:34 AM 35.8580 138.9150 276° West 389 448 39,000 977 Climbing FlightAware ADS-B
Sun 04:54:11 AM 35.8640 138.8370 275° West 384 442 39,700 896 Climbing FlightAware ADS-B
Sun 04:54:41 AM 35.8690 138.7710 275° West 383 441 40,000 300 Climbing FlightAware ADS-B
Sun 04:55:11 AM 35.8730 138.7080 274° West 378 435 40,000  Level FlightAware ADS-B
Sun 04:55:41 AM 35.8780 138.6450 276° West 384 442 40,000  Level FlightAware ADS-B
Sun 04:56:16 AM 35.8840 138.5670 275° West 389 448 40,000  Level FlightAware ADS-B
Sun 04:56:52 AM 35.8860 138.4830 272° West 387 445 40,000  Level FlightAware ADS-B
Sun 04:59:00 AM 35.9561 138.2480 290° West  Level Estimated
Sun 05:00:00 AM 35.9888 138.1378 290° West  Level Estimated
Sun 05:01:00 AM 36.0214 138.0274 290° West  Level Estimated
Sun 05:02:00 AM 36.0538 137.9169 290° West  Level Estimated
Sun 05:03:00 AM 36.0862 137.8064 290° West  Level Estimated
Sun 05:04:00 AM 36.1185 137.6957 290° West  Level Estimated
Sun 05:05:00 AM 36.1507 137.5850 290° West  Level Estimated
Sun 05:06:00 AM 36.1828 137.4742 290° West  Level Estimated
Sun 05:07:00 AM 36.2148 137.3633 290° West  Level Estimated
Sun 05:08:00 AM 36.2467 137.2522 290° West  Level Estimated
Sun 05:09:00 AM 36.2784 137.1411 290° West  Level Estimated
Sun 05:10:00 AM 36.3101 137.0300 289° West  Level Estimated
Sun 05:11:00 AM 36.3417 136.9187 289° West  Level Estimated
Sun 05:12:00 AM 36.3731 136.8073 289° West  Level Estimated
Sun 05:13:00 AM 36.4045 136.6958 289° West  Level Estimated
Sun 05:14:00 AM 36.4358 136.5843 289° West  Level Estimated
Sun 05:15:00 AM 36.4669 136.4727 289° West  Level Estimated
Sun 05:16:00 AM 36.4980 136.3609 289° West  Level Estimated
Sun 05:17:00 AM 36.5289 136.2491 289° West  Level Estimated
Sun 05:18:00 AM 36.5598 136.1372 289° West  Level Estimated
Sun 05:19:00 AM 36.5905 136.0252 289° West  Level Estimated
Sun 05:20:00 AM 36.6211 135.9131 289° West  Level Estimated
Sun 05:21:00 AM 36.6517 135.8009 289° West  Level Estimated
Sun 05:22:00 AM 36.6821 135.6887 289° West  Level Estimated
Sun 05:23:00 AM 36.7124 135.5763 289° West  Level Estimated
Sun 05:24:00 AM 36.7426 135.4639 289° West  Level Estimated
Sun 05:25:00 AM 36.7727 135.3514 289° West  Level Estimated
Sun 05:26:00 AM 36.8027 135.2388 288° West  Level Estimated
Sun 05:27:00 AM 36.8326 135.1261 288° West  Level Estimated
Sun 05:28:00 AM 36.8624 135.0133 288° West  Level Estimated
Sun 05:29:00 AM 36.8921 134.9004 288° West  Level Estimated
Sun 05:30:00 AM 36.9217 134.7874 288° West  Level Estimated
Sun 05:31:00 AM 36.9511 134.6743 288° West  Level Estimated
Sun 05:32:00 AM 36.9805 134.5612 288° West  Level Estimated
Sun 05:33:00 AM 37.0097 134.4480 288° West  Level Estimated
Sun 05:34:00 AM 37.0389 134.3347 288° West  Level Estimated
Sun 05:35:00 AM 37.0679 134.2213 288° West  Level Estimated
Sun 05:36:00 AM 37.0969 134.1078 288° West  Level Estimated
Sun 05:37:00 AM 37.1257 133.9942 288° West  Level Estimated
Sun 05:38:00 AM 37.1544 133.8805 288° West  Level Estimated
Sun 05:39:00 AM 37.1830 133.7668 288° West  Level Estimated
Sun 05:40:00 AM 37.2115 133.6529 287° West  Level Estimated
Sun 05:41:00 AM 37.2399 133.5390 287° West  Level Estimated
Sun 05:42:00 AM 37.2682 133.4250 287° West  Level Estimated
Sun 05:43:00 AM 37.2963 133.3109 287° West  Level Estimated
Sun 05:44:00 AM 37.3244 133.1967 287° West  Level Estimated
Sun 05:45:00 AM 37.3523 133.0825 287° West  Level Estimated
Sun 05:46:00 AM 37.3802 132.9681 287° West  Level Estimated
Sun 05:47:00 AM 37.4079 132.8537 287° West  Level Estimated
Sun 05:48:00 AM 37.4355 132.7392 287° West  Level Estimated
Sun 05:49:00 AM 37.4630 132.6246 287° West  Level Estimated
Sun 05:50:00 AM 37.4904 132.5099 287° West  Level Estimated
Sun 05:51:00 AM 37.5177 132.3951 287° West  Level Estimated
Sun 05:52:00 AM 37.5449 132.2803 287° West  Level Estimated
Sun 05:53:00 AM 37.5720 132.1653 287° West  Level Estimated
Sun 05:54:00 AM 37.5989 132.0503 287° West  Level Estimated
Sun 05:55:00 AM 37.6258 131.9352 286° West  Level Estimated
Sun 05:56:00 AM 37.6525 131.8200 286° West  Level Estimated
Sun 05:57:00 AM 37.6791 131.7047 286° West  Level Estimated
Sun 05:58:00 AM 37.7056 131.5894 286° West  Level Estimated
Sun 05:59:00 AM 37.7320 131.4740 286° West  Level Estimated
Sun 06:00:00 AM 37.7583 131.3584 286° West  Level Estimated
Sun 06:01:00 AM 37.7844 131.2428 286° West  Level Estimated
Sun 06:02:00 AM 37.8105 131.1272 286° West  Level Estimated
Sun 06:03:00 AM 37.8364 131.0114 286° West  Level Estimated
Sun 06:04:00 AM 37.8623 130.8956 286° West  Level Estimated
Sun 06:05:00 AM 37.8880 130.7796 286° West  Level Estimated
Sun 06:06:00 AM 37.9136 130.6637 286° West  Level Estimated
Sun 06:07:00 AM 37.9390 130.5476 286° West  Level Estimated
Sun 06:08:00 AM 37.9644 130.4314 286° West  Level Estimated
Sun 06:09:00 AM 37.9897 130.3151 285° West  Level Estimated
Sun 06:10:00 AM 38.0148 130.1988 285° West  Level Estimated
Sun 06:11:00 AM 38.0397 130.0830 285° West  Level Estimated
Sun 06:12:00 AM 38.0645 129.9671 285° West  Level Estimated
Sun 06:13:00 AM 38.0892 129.8511 285° West  Level Estimated
Sun 06:14:00 AM 38.1138 129.7350 285° West  Level Estimated
Sun 06:15:00 AM 38.1382 129.6189 285° West  Level Estimated
Sun 06:16:00 AM 38.1625 129.5027 285° West  Level Estimated
Sun 06:17:00 AM 38.1867 129.3864 285° West  Level Estimated
Sun 06:18:00 AM 38.2108 129.2700 285° West  Level Estimated
Sun 06:19:00 AM 38.2348 129.1535 285° West  Level Estimated
Sun 06:20:00 AM 38.2587 129.0370 285° West  Level Estimated
Sun 06:21:00 AM 38.2825 128.9204 285° West  Level Estimated
Sun 06:22:00 AM 38.3062 128.8031 285° West  Level Estimated
Sun 06:23:00 AM 38.3299 128.6858 284° West  Level Estimated
Sun 06:24:00 AM 38.3534 128.5684 284° West  Level Estimated
Sun 06:25:00 AM 38.3768 128.4509 284° West  Level Estimated
Sun 06:26:00 AM 38.4001 128.3333 284° West  Level Estimated
Sun 06:27:00 AM 38.4233 128.2157 284° West  Level Estimated
Sun 06:28:00 AM 38.4463 128.0979 284° West  Level Estimated
Sun 06:29:00 AM 38.4693 127.9802 284° West  Level Estimated
Sun 06:30:00 AM 38.4921 127.8623 284° West  Level Estimated
Sun 06:31:00 AM 38.5148 127.7443 284° West  Level Estimated
Sun 06:32:00 AM 38.5374 127.6263 284° West  Level Estimated
Sun 06:33:00 AM 38.5598 127.5082 284° West  Level Estimated
Sun 06:34:00 AM 38.5822 127.3901 284° West  Level Estimated
Sun 06:35:00 AM 38.6044 127.2718 284° West  Level Estimated
Sun 06:36:00 AM 38.6265 127.1535 283° West  Level Estimated
Sun 06:37:00 AM 38.6484 127.0357 283° West  Level Estimated
Sun 06:38:00 AM 38.6702 126.9179 283° West  Level Estimated
Sun 06:39:00 AM 38.6918 126.7999 283° West  Level Estimated
Sun 06:40:00 AM 38.7133 126.6819 283° West  Level Estimated
Sun 06:41:00 AM 38.7348 126.5638 283° West  Level Estimated
Sun 06:42:00 AM 38.7561 126.4457 283° West  Level Estimated
Sun 06:43:00 AM 38.7772 126.3275 283° West  Level Estimated
Sun 06:44:00 AM 38.7983 126.2092 283° West  Level Estimated
Sun 06:45:00 AM 38.8192 126.0908 283° West  Level Estimated
Sun 06:46:00 AM 38.8400 125.9724 283° West  Level Estimated
Sun 06:47:00 AM 38.8607 125.8539 283° West  Level Estimated
Sun 06:48:00 AM 38.8813 125.7353 283° West  Level Estimated
Sun 06:49:00 AM 38.9017 125.6167 283° West  Level Estimated
Sun 06:50:00 AM 38.9221 125.4979 282° West  Level Estimated
Sun 06:51:00 AM 38.9423 125.3792 282° West  Level Estimated
Sun 06:52:00 AM 38.9623 125.2603 282° West  Level Estimated
Sun 06:53:00 AM 38.9823 125.1414 282° West  Level Estimated
Sun 06:54:00 AM 39.0022 125.0224 282° West  Level Estimated
Sun 06:55:00 AM 39.0219 124.9034 282° West  Level Estimated
Sun 06:56:00 AM 39.0415 124.7843 282° West  Level Estimated
Sun 06:57:00 AM 39.0610 124.6651 282° West  Level Estimated
Sun 06:58:00 AM 39.0804 124.5459 282° West  Level Estimated
Sun 06:59:00 AM 39.0996 124.4266 282° West  Level Estimated
Sun 07:00:00 AM 39.1187 124.3072 282° West  Level Estimated
Sun 07:01:00 AM 39.1377 124.1877 282° West  Level Estimated
Sun 07:02:00 AM 39.1566 124.0682 282° West  Level Estimated
Sun 07:03:00 AM 39.1754 123.9487 281° West  Level Estimated
Sun 07:04:00 AM 39.1941 123.8285 281° West  Level Estimated
Sun 07:05:00 AM 39.2127 123.7082 281° West  Level Estimated
Sun 07:06:00 AM 39.2312 123.5878 281° West  Level Estimated
Sun 07:07:00 AM 39.2495 123.4674 281° West  Level Estimated
Sun 07:08:00 AM 39.2678 123.3469 281° West  Level Estimated
Sun 07:09:00 AM 39.2859 123.2264 281° West  Level Estimated
Sun 07:10:00 AM 39.3039 123.1058 281° West  Level Estimated
Sun 07:11:00 AM 39.3217 122.9851 281° West  Level Estimated
Sun 07:12:00 AM 39.3395 122.8644 281° West  Level Estimated
Sun 07:13:00 AM 39.3571 122.7436 281° West  Level Estimated
Sun 07:14:00 AM 39.3745 122.6234 281° West  Level Estimated
Sun 07:15:00 AM 39.3917 122.5031 281° West  Level Estimated
Sun 07:16:00 AM 39.4089 122.3827 280° West  Level Estimated
Sun 07:17:00 AM 39.4259 122.2623 280° West  Level Estimated
Sun 07:18:00 AM 39.4428 122.1418 280° West  Level Estimated
Sun 07:19:00 AM 39.4596 122.0212 280° West  Level Estimated
Sun 07:20:00 AM 39.4762 121.9006 280° West  Level Estimated
Sun 07:21:00 AM 39.4928 121.7800 280° West  Level Estimated
Sun 07:22:00 AM 39.5092 121.6592 280° West  Level Estimated
Sun 07:23:00 AM 39.5255 121.5385 280° West  Level Estimated
Sun 07:24:00 AM 39.5416 121.4176 280° West  Level Estimated
Sun 07:25:00 AM 39.5576 121.2968 280° West  Level Estimated
Sun 07:26:00 AM 39.5735 121.1758 280° West  Level Estimated
Sun 07:27:00 AM 39.5893 121.0548 280° West  Level Estimated
Sun 07:28:00 AM 39.6050 120.9338 280° West  Level Estimated
Sun 07:29:00 AM 39.6205 120.8127 279° West  Level Estimated
Sun 07:30:00 AM 39.6359 120.6915 279° West  Level Estimated
Sun 07:31:00 AM 39.6512 120.5703 279° West  Level Estimated
Sun 07:32:00 AM 39.6663 120.4490 279° West  Level Estimated
Sun 07:33:00 AM 39.6813 120.3277 279° West  Level Estimated
Sun 07:34:00 AM 39.6962 120.2063 279° West  Level Estimated
Sun 07:35:00 AM 39.7110 120.0849 279° West  Level Estimated
Sun 07:36:00 AM 39.7257 119.9634 279° West  Level Estimated
Sun 07:37:00 AM 39.7402 119.8419 279° West  Level Estimated
Sun 07:38:00 AM 39.7546 119.7203 279° West  Level Estimated
Sun 07:39:00 AM 39.7688 119.5987 279° West  Level Estimated
Sun 07:40:00 AM 39.7830 119.4770 279° West  Level Estimated
Sun 07:41:00 AM 39.7970 119.3553 279° West  Level Estimated
Sun 07:42:00 AM 39.8108 119.2335 278° West  Level Estimated
Sun 07:43:00 AM 39.8246 119.1117 278° West  Level Estimated
Sun 07:44:00 AM 39.8382 118.9898 278° West  Level Estimated
Sun 07:45:00 AM 39.8517 118.8679 278° West  Level Estimated
Sun 07:46:00 AM 39.8651 118.7459 278° West  Level Estimated
Sun 07:47:00 AM 39.8784 118.6239 278° West  Level Estimated
Sun 07:48:00 AM 39.8915 118.5018 278° West  Level Estimated
Sun 07:49:00 AM 39.9045 118.3797 278° West  Level Estimated
Sun 07:50:00 AM 39.9173 118.2575 278° West  Level Estimated
Sun 07:51:00 AM 39.9301 118.1353 278° West  Level Estimated
Sun 07:52:00 AM 39.9427 118.0131 278° West  Level Estimated
Sun 07:53:00 AM 39.9551 117.8908 278° West  Level Estimated
Sun 07:54:00 AM 39.9675 117.7684 278° West  Level Estimated
Sun 07:55:00 AM 39.9797 117.6460 277° West  Level Estimated
Sun 07:56:00 AM 39.9918 117.5236 277° West  Level Estimated
Sun 07:57:00 AM 40.0038 117.4011 277° West  Level Estimated
Sun 07:58:00 AM 40.0156 117.2786 277° West  Level Estimated
Sun 07:59:00 AM 40.0273 117.1561 277° West  Level Estimated
Sun 08:00:00 AM 40.0389 117.0335 277° West  Level Estimated
Sun 08:01:00 AM 40.0503 116.9108 277° West  Level Estimated
Sun 08:02:00 AM 40.0616 116.7881 277° West  Level Estimated
Sun 08:03:00 AM 40.0728 116.6654 277° West  Level Estimated
Sun 08:04:00 AM 40.0801 116.5846 277° West  Level Estimated
Sun 08:05:00 AM 40.0801 116.5846 288° West  Level Estimated
Sun 08:06:00 AM 40.0801 116.5846 288° West  Level Estimated
Sun 08:07:00 AM 40.0801 116.5846 288° West  Level Estimated
Sun 08:08:00 AM 40.0801 116.5846 288° West  Level Estimated
Sun 08:09:00 AM 40.0801 116.5846 288° West  Level Estimated
Sun 08:10:00 AM 40.0801 116.5846 288° West  Level Estimated

Login

Don't have an account? Register now (free) for customized features, flight alerts, and more!